createdAt,value
2022-09-19T00:02:07.664Z,10.40
2022-09-19T00:04:37.321Z,10.40
2022-09-19T00:07:07.382Z,10.30
2022-09-19T00:09:38.080Z,10.30
2022-09-19T00:12:08.312Z,10.30
2022-09-19T00:14:37.974Z,10.20
2022-09-19T00:17:10.086Z,10.20
2022-09-19T00:19:40.463Z,10.20
2022-09-19T00:22:10.624Z,10.20
2022-09-19T00:24:51.372Z,10.20
2022-09-19T00:27:23.383Z,10.10
2022-09-19T00:29:53.540Z,10.10
2022-09-19T00:32:24.580Z,10.10
2022-09-19T00:34:57.229Z,10.10
2022-09-19T00:37:26.808Z,10.10
2022-09-19T00:39:57.985Z,10.10
2022-09-19T00:42:30.080Z,10.00
2022-09-19T00:45:03.145Z,10.10
2022-09-19T00:47:37.657Z,10.00
2022-09-19T00:50:15.564Z,10.00
2022-09-19T00:52:49.339Z,10.10
2022-09-19T00:55:20.417Z,10.10
2022-09-19T00:58:09.877Z,10.10
2022-09-19T01:00:39.737Z,10.10
2022-09-19T01:03:10.905Z,10.10
2022-09-19T01:05:45.816Z,10.10
2022-09-19T01:08:46.936Z,10.10
2022-09-19T01:11:36.861Z,10.10
2022-09-19T01:14:16.468Z,10.00
2022-09-19T01:16:51.727Z,10.00
2022-09-19T01:19:55.981Z,10.10
2022-09-19T01:22:44.473Z,10.00
2022-09-19T01:25:23.880Z,10.10
2022-09-19T01:28:15.461Z,10.00
2022-09-19T01:31:12.708Z,10.00
2022-09-19T01:33:44.493Z,10.00
2022-09-19T01:36:17.052Z,10.10
2022-09-19T01:38:48.776Z,10.00
2022-09-19T01:41:20.904Z,10.10
2022-09-19T01:43:52.266Z,10.10
2022-09-19T01:46:29.634Z,10.10
2022-09-19T01:49:08.310Z,10.10
2022-09-19T01:51:46.289Z,10.20
2022-09-19T01:54:37.036Z,10.20
2022-09-19T01:57:17.072Z,10.10
2022-09-19T02:00:04.412Z,10.10
2022-09-19T02:02:41.378Z,10.10
2022-09-19T02:05:15.377Z,10.10
2022-09-19T02:07:53.950Z,10.10
2022-09-19T02:10:26.444Z,10.20
2022-09-19T02:12:59.411Z,10.10
2022-09-19T02:15:32.718Z,10.10
2022-09-19T02:18:08.663Z,10.20
2022-09-19T02:20:45.762Z,10.10
2022-09-19T02:23:21.197Z,10.20
2022-09-19T02:25:53.517Z,10.20
2022-09-19T02:28:31.233Z,10.20
2022-09-19T02:31:02.615Z,10.20
2022-09-19T02:33:35.652Z,10.20
2022-09-19T02:36:16.895Z,10.20
2022-09-19T02:38:55.509Z,10.20
2022-09-19T02:41:32.376Z,10.30
2022-09-19T02:44:07.820Z,10.30
2022-09-19T02:46:43.112Z,10.30
2022-09-19T02:49:17.344Z,10.30
2022-09-19T02:51:51.313Z,10.30
2022-09-19T02:54:24.940Z,10.30
2022-09-19T02:56:56.404Z,10.30
2022-09-19T02:59:30.907Z,10.40
2022-09-19T03:02:04.012Z,10.30
2022-09-19T03:04:39.784Z,10.40
2022-09-19T03:07:15.004Z,10.30
2022-09-19T03:09:53.457Z,10.30
2022-09-19T03:12:28.167Z,10.30
2022-09-19T03:15:00.182Z,10.30
2022-09-19T03:17:34.577Z,10.30
2022-09-19T03:20:05.571Z,10.30
2022-09-19T03:22:35.915Z,10.30
2022-09-19T03:25:05.719Z,10.30
2022-09-19T03:27:38.418Z,10.30
2022-09-19T03:30:13.277Z,10.30
2022-09-19T03:32:45.741Z,10.30
2022-09-19T03:35:16.092Z,10.30
2022-09-19T03:37:45.442Z,10.30
2022-09-19T03:40:15.072Z,10.20
2022-09-19T03:42:47.422Z,10.30
2022-09-19T03:45:16.900Z,10.20
2022-09-19T03:47:48.596Z,10.30
2022-09-19T03:50:19.020Z,10.20
2022-09-19T03:52:50.440Z,10.20
2022-09-19T03:55:19.677Z,10.20
2022-09-19T03:57:49.074Z,10.20
2022-09-19T04:00:19.055Z,10.20
2022-09-19T04:02:50.968Z,10.20
2022-09-19T04:05:21.203Z,10.20
2022-09-19T04:07:50.497Z,10.20
2022-09-19T04:10:19.836Z,10.20
2022-09-19T04:12:49.912Z,10.30
2022-09-19T04:15:19.637Z,10.30
2022-09-19T04:17:50.376Z,10.30
2022-09-19T04:20:20.533Z,10.30
2022-09-19T04:22:50.581Z,10.20
2022-09-19T04:25:20.057Z,10.30
2022-09-19T04:27:50.974Z,10.20
2022-09-19T04:30:23.831Z,10.30
2022-09-19T04:32:54.861Z,10.30
2022-09-19T04:35:24.504Z,10.30
2022-09-19T04:37:53.752Z,10.30
2022-09-19T04:40:23.501Z,10.30
2022-09-19T04:42:52.784Z,10.30
2022-09-19T04:45:23.497Z,10.30
2022-09-19T04:47:56.065Z,10.20
2022-09-19T04:50:25.578Z,10.30
2022-09-19T04:52:59.145Z,10.30
2022-09-19T04:55:28.941Z,10.30
2022-09-19T04:57:59.072Z,10.30
2022-09-19T05:00:40.935Z,10.30
2022-09-19T05:03:13.877Z,10.30
2022-09-19T05:05:45.830Z,10.30
2022-09-19T05:08:19.407Z,10.30
2022-09-19T05:10:49.532Z,10.30
2022-09-19T05:13:19.603Z,10.40
2022-09-19T05:15:48.953Z,10.40
2022-09-19T05:18:21.673Z,10.50
2022-09-19T05:20:53.443Z,10.50
2022-09-19T05:23:24.205Z,10.50
2022-09-19T05:25:55.075Z,10.40
2022-09-19T05:28:28.321Z,10.40
2022-09-19T05:30:58.326Z,10.40
2022-09-19T05:33:29.329Z,10.40
2022-09-19T05:36:01.664Z,10.40
2022-09-19T05:38:32.211Z,10.40
2022-09-19T05:41:03.601Z,10.40
2022-09-19T05:43:34.144Z,10.40
2022-09-19T05:46:04.262Z,10.40
2022-09-19T05:48:38.594Z,10.40
2022-09-19T05:51:08.376Z,10.40
2022-09-19T05:53:56.387Z,10.40
2022-09-19T05:56:26.649Z,10.40
2022-09-19T05:58:57.837Z,10.40
2022-09-19T06:01:27.701Z,10.50
2022-09-19T06:03:58.585Z,10.50
2022-09-19T06:06:28.694Z,10.50
2022-09-19T06:09:00.224Z,10.40
2022-09-19T06:11:29.392Z,10.50
2022-09-19T06:14:18.874Z,10.50
2022-09-19T06:16:48.430Z,10.60
2022-09-19T06:19:19.866Z,10.70
2022-09-19T06:21:49.028Z,10.70
2022-09-19T06:24:18.888Z,10.70
2022-09-19T06:26:48.156Z,10.70
2022-09-19T06:29:18.058Z,10.70
2022-09-19T06:31:47.349Z,10.70
2022-09-19T06:34:19.340Z,10.80
2022-09-19T06:36:49.285Z,10.80
2022-09-19T06:39:18.817Z,10.90
2022-09-19T06:41:48.548Z,10.90
2022-09-19T06:44:18.850Z,10.90
2022-09-19T06:46:48.197Z,11.00
2022-09-19T06:49:18.958Z,11.10
2022-09-19T06:51:48.620Z,11.20
2022-09-19T06:54:18.123Z,11.20
2022-09-19T06:56:47.501Z,11.30
2022-09-19T06:59:18.361Z,11.30
2022-09-19T07:01:47.803Z,11.30
2022-09-19T07:04:19.980Z,11.30
2022-09-19T07:06:49.480Z,11.30
2022-09-19T07:09:19.665Z,11.40
2022-09-19T07:11:53.502Z,11.50
2022-09-19T07:14:23.580Z,11.50
2022-09-19T07:16:52.929Z,11.50
2022-09-19T07:19:23.640Z,11.50
2022-09-19T07:21:55.468Z,11.60
2022-09-19T07:24:25.162Z,11.70
2022-09-19T07:26:55.577Z,11.80
2022-09-19T07:29:25.012Z,11.80
2022-09-19T07:31:54.315Z,12.00
2022-09-19T07:34:26.925Z,12.00
2022-09-19T07:36:56.549Z,12.10
2022-09-19T07:39:27.628Z,12.30
2022-09-19T07:42:03.552Z,12.40
2022-09-19T07:44:33.594Z,12.60
2022-09-19T07:47:20.355Z,12.70
2022-09-19T07:49:51.685Z,12.80
2022-09-19T07:52:21.095Z,13.00
2022-09-19T07:54:50.764Z,13.10
2022-09-19T07:57:20.290Z,13.30
2022-09-19T07:59:49.710Z,13.40
2022-09-19T08:02:19.466Z,13.50
2022-09-19T08:04:49.969Z,13.70
2022-09-19T08:07:21.398Z,13.70
2022-09-19T08:09:50.328Z,13.70
2022-09-19T08:12:19.686Z,13.70
2022-09-19T08:14:49.777Z,13.80
2022-09-19T08:17:20.983Z,13.90
2022-09-19T08:19:50.869Z,13.90
2022-09-19T08:22:21.755Z,14.00
2022-09-19T08:24:51.161Z,14.00
2022-09-19T08:27:21.296Z,14.10
2022-09-19T08:29:50.766Z,14.20
2022-09-19T08:32:20.244Z,14.20
2022-09-19T08:34:50.168Z,14.20
2022-09-19T08:37:21.405Z,14.20
2022-09-19T08:40:04.739Z,14.20
2022-09-19T08:42:40.803Z,14.00
2022-09-19T08:45:18.572Z,13.90
2022-09-19T08:47:49.863Z,13.90
2022-09-19T08:50:26.818Z,14.00
2022-09-19T08:53:00.553Z,14.10
2022-09-19T08:55:33.724Z,14.10
2022-09-19T08:58:05.992Z,14.20
2022-09-19T09:00:43.105Z,14.30
2022-09-19T09:03:23.049Z,14.40
2022-09-19T09:05:57.504Z,14.60
2022-09-19T09:08:42.681Z,14.80
2022-09-19T09:11:23.518Z,15.00
2022-09-19T09:14:02.317Z,15.20
2022-09-19T09:16:46.297Z,15.20
2022-09-19T09:19:37.003Z,15.30
2022-09-19T09:22:17.506Z,15.30
2022-09-19T09:24:52.417Z,15.20
2022-09-19T09:27:25.580Z,15.40
2022-09-19T09:29:59.538Z,15.20
2022-09-19T09:32:34.073Z,15.00
2022-09-19T09:35:06.134Z,14.90
2022-09-19T09:37:46.203Z,14.80
2022-09-19T09:40:40.024Z,14.80
2022-09-19T09:43:16.073Z,15.00
2022-09-19T09:45:49.686Z,15.00
2022-09-19T09:48:26.824Z,15.10
2022-09-19T09:51:11.356Z,15.10
2022-09-19T09:53:55.302Z,15.30
2022-09-19T09:56:33.680Z,15.20
2022-09-19T09:59:38.832Z,15.50
2022-09-19T10:02:40.141Z,15.70
2022-09-19T10:05:16.272Z,15.90
2022-09-19T10:08:00.386Z,15.90
2022-09-19T10:10:33.125Z,15.90
2022-09-19T10:13:08.592Z,15.80
2022-09-19T10:15:42.661Z,15.40
2022-09-19T10:18:17.174Z,15.30
2022-09-19T10:20:51.252Z,15.20
2022-09-19T10:23:25.777Z,15.20
2022-09-19T10:26:02.281Z,15.20
2022-09-19T10:28:37.802Z,15.10
2022-09-19T10:31:08.748Z,15.30
2022-09-19T10:33:45.245Z,15.60
2022-09-19T10:36:22.309Z,15.60
2022-09-19T10:38:55.417Z,15.60
2022-09-19T10:41:28.684Z,15.90
2022-09-19T10:44:01.510Z,16.30
2022-09-19T10:46:37.265Z,16.60
2022-09-19T10:49:21.215Z,17.20
2022-09-19T10:51:53.493Z,17.70
2022-09-19T10:54:35.409Z,18.30
2022-09-19T10:57:06.021Z,18.80
2022-09-19T10:59:39.180Z,18.50
2022-09-19T11:02:25.927Z,18.20
2022-09-19T11:05:01.209Z,18.90
2022-09-19T11:07:35.213Z,19.70
2022-09-19T11:10:11.319Z,20.10
2022-09-19T11:12:42.896Z,21.00
2022-09-19T11:15:18.316Z,21.60
2022-09-19T11:18:09.290Z,21.40
2022-09-19T11:20:43.335Z,21.70
2022-09-19T11:23:53.681Z,20.40
2022-09-19T11:26:36.714Z,18.20
2022-09-19T11:29:32.418Z,16.80
2022-09-19T11:35:20.155Z,15.40
2022-09-19T11:38:04.399Z,15.10
2022-09-19T11:40:48.742Z,14.80
2022-09-19T11:43:40.417Z,14.60
2022-09-19T11:46:19.489Z,14.50
2022-09-19T11:49:15.149Z,14.50
2022-09-19T11:51:57.681Z,14.30
2022-09-19T11:54:46.062Z,14.20
2022-09-19T11:57:31.617Z,14.30
2022-09-19T12:00:07.477Z,14.50
2022-09-19T12:03:00.354Z,14.70
2022-09-19T12:05:44.289Z,14.90
2022-09-19T12:08:29.526Z,14.90
2022-09-19T12:11:06.484Z,15.00
2022-09-19T12:13:44.380Z,15.30
2022-09-19T12:16:25.692Z,15.30
2022-09-19T12:19:01.774Z,15.70
2022-09-19T12:21:37.459Z,16.80
2022-09-19T12:24:32.030Z,18.20
2022-09-19T12:27:07.368Z,19.10
2022-09-19T12:29:44.541Z,19.00
2022-09-19T12:32:20.604Z,18.40
2022-09-19T12:34:54.825Z,17.90
2022-09-19T12:37:40.535Z,17.40
2022-09-19T12:40:23.505Z,17.60
2022-09-19T12:42:59.603Z,17.90
2022-09-19T12:45:37.292Z,18.00
2022-09-19T12:48:24.568Z,18.00
2022-09-19T12:50:59.442Z,18.10
2022-09-19T12:53:36.192Z,18.90
2022-09-19T12:56:11.569Z,19.80
2022-09-19T12:58:53.628Z,20.50
2022-09-19T13:01:33.377Z,20.70
2022-09-19T13:04:26.844Z,20.80
2022-09-19T13:07:02.609Z,21.40
2022-09-19T13:09:36.417Z,22.00
2022-09-19T13:12:11.216Z,22.70
2022-09-19T13:14:50.644Z,22.90
2022-09-19T13:17:38.245Z,22.20
2022-09-19T13:20:35.020Z,21.70
2022-09-19T13:23:23.455Z,20.80
2022-09-19T13:25:55.221Z,20.10
2022-09-19T13:28:35.732Z,19.40
2022-09-19T13:31:17.116Z,19.00
2022-09-19T13:33:51.048Z,19.10
2022-09-19T13:36:40.929Z,18.80
2022-09-19T13:39:25.432Z,18.50
2022-09-19T13:42:00.082Z,17.90
2022-09-19T13:44:37.676Z,17.30
2022-09-19T13:47:12.213Z,17.00
2022-09-19T13:49:47.121Z,17.10
2022-09-19T13:52:24.100Z,17.60
2022-09-19T13:55:19.613Z,18.10
2022-09-19T13:57:50.645Z,18.30
2022-09-19T14:00:34.218Z,18.30
2022-09-19T14:03:05.730Z,17.80
2022-09-19T14:05:41.919Z,17.20
2022-09-19T14:11:32.461Z,16.50
2022-09-19T14:14:23.480Z,16.10
2022-09-19T14:17:17.617Z,15.90
2022-09-19T14:19:49.916Z,15.60
2022-09-19T14:22:45.686Z,15.60
2022-09-19T14:25:21.600Z,16.10
2022-09-19T14:28:07.563Z,16.60
2022-09-19T14:31:12.476Z,17.10
2022-09-19T14:34:23.898Z,17.70
2022-09-19T14:37:47.880Z,18.10
2022-09-19T14:40:31.978Z,17.90
2022-09-19T14:43:48.960Z,17.80
2022-09-19T14:46:29.833Z,17.70
2022-09-19T14:49:07.526Z,17.80
2022-09-19T14:51:43.814Z,17.10
2022-09-19T14:54:27.658Z,16.70
2022-09-19T14:57:02.297Z,16.70
2022-09-19T14:59:35.040Z,16.60
2022-09-19T15:02:21.158Z,16.00
2022-09-19T15:04:52.985Z,15.60
2022-09-19T15:07:29.357Z,15.40
2022-09-19T15:09:59.034Z,15.50
2022-09-19T15:12:33.246Z,15.80
2022-09-19T15:15:02.528Z,16.10
2022-09-19T15:17:35.534Z,16.50
2022-09-19T15:20:14.309Z,16.60
2022-09-19T15:22:53.458Z,16.60
2022-09-19T15:25:30.578Z,16.20
2022-09-19T15:28:03.709Z,15.80
2022-09-19T15:30:35.880Z,15.50
2022-09-19T15:33:12.741Z,15.10
2022-09-19T15:35:45.105Z,14.80
2022-09-19T15:38:17.455Z,14.60
2022-09-19T15:40:48.120Z,14.50
2022-09-19T15:43:19.287Z,14.40
2022-09-19T15:45:50.953Z,14.20
2022-09-19T15:48:26.390Z,14.20
2022-09-19T15:50:59.889Z,14.10
2022-09-19T15:53:32.859Z,14.10
2022-09-19T15:56:12.839Z,14.00
2022-09-19T15:58:48.255Z,14.00
2022-09-19T16:01:26.087Z,13.90
2022-09-19T16:04:02.043Z,13.90
2022-09-19T16:06:54.448Z,13.80
2022-09-19T16:09:35.684Z,13.80
2022-09-19T16:12:04.908Z,13.80
2022-09-19T16:14:43.063Z,13.70
2022-09-19T16:17:23.134Z,13.60
2022-09-19T16:19:55.514Z,13.50
2022-09-19T16:22:27.704Z,13.40
2022-09-19T16:25:04.079Z,13.40
2022-09-19T16:27:33.809Z,13.40
2022-09-19T16:30:05.557Z,13.30
2022-09-19T16:32:36.417Z,13.30
2022-09-19T16:35:16.292Z,13.20
2022-09-19T16:37:45.731Z,13.20
2022-09-19T16:40:24.356Z,13.10
2022-09-19T16:42:54.354Z,13.10
2022-09-19T16:45:26.066Z,13.00
2022-09-19T16:47:55.629Z,13.00
2022-09-19T16:50:28.357Z,12.90
2022-09-19T16:52:57.913Z,12.90
2022-09-19T16:55:39.580Z,12.90
2022-09-19T16:58:13.186Z,12.80
2022-09-19T17:00:43.379Z,12.70
2022-09-19T17:03:16.239Z,12.70
2022-09-19T17:05:48.047Z,12.60
2022-09-19T17:08:18.516Z,12.50
2022-09-19T17:10:50.088Z,12.40
2022-09-19T17:13:19.324Z,12.40
2022-09-19T17:15:54.546Z,12.30
2022-09-19T17:18:25.295Z,12.30
2022-09-19T17:20:59.196Z,12.20
2022-09-19T17:23:31.691Z,12.10
2022-09-19T17:26:01.792Z,12.10
2022-09-19T17:28:31.964Z,12.00
2022-09-19T17:31:02.333Z,12.00
2022-09-19T17:33:32.977Z,11.90
2022-09-19T17:36:04.589Z,11.90
2022-09-19T17:38:34.976Z,11.90
2022-09-19T17:41:05.382Z,11.90
2022-09-19T17:43:34.636Z,11.90
2022-09-19T17:46:04.960Z,11.80
2022-09-19T17:48:36.286Z,11.80
2022-09-19T17:51:11.165Z,11.80
2022-09-19T17:53:43.236Z,11.80
2022-09-19T17:56:15.101Z,11.80
2022-09-19T17:58:49.806Z,11.80
2022-09-19T18:01:36.970Z,11.80
2022-09-19T18:04:08.026Z,11.80
2022-09-19T18:06:39.547Z,11.80
2022-09-19T18:09:11.444Z,11.80
2022-09-19T18:11:41.112Z,11.80
2022-09-19T18:14:16.471Z,11.80
2022-09-19T18:16:47.085Z,11.80
2022-09-19T18:19:17.037Z,11.70
2022-09-19T18:21:49.701Z,11.70
2022-09-19T18:24:19.583Z,11.60
2022-09-19T18:26:49.555Z,11.60
2022-09-19T18:29:18.837Z,11.60
2022-09-19T18:31:49.576Z,11.50
2022-09-19T18:34:19.094Z,11.50
2022-09-19T18:36:50.176Z,11.60
2022-09-19T18:39:20.340Z,11.60
2022-09-19T18:41:50.246Z,11.60
2022-09-19T18:44:19.540Z,11.60
2022-09-19T18:46:50.177Z,11.50
2022-09-19T18:49:20.341Z,11.60
2022-09-19T18:51:51.955Z,11.50
2022-09-19T18:54:23.036Z,11.50
2022-09-19T18:56:52.935Z,11.40
2022-09-19T18:59:22.390Z,11.40
2022-09-19T19:01:51.768Z,11.40
2022-09-19T19:04:21.473Z,11.40
2022-09-19T19:06:52.345Z,11.30
2022-09-19T19:09:21.388Z,11.30
2022-09-19T19:11:51.547Z,11.30
2022-09-19T19:14:21.154Z,11.20
2022-09-19T19:16:51.135Z,11.20
2022-09-19T19:19:25.496Z,11.20
2022-09-19T19:21:56.970Z,11.20
2022-09-19T19:24:27.549Z,11.10
2022-09-19T19:26:57.261Z,11.10
2022-09-19T19:29:26.883Z,11.00
2022-09-19T19:31:57.049Z,11.00
2022-09-19T19:34:26.466Z,11.00
2022-09-19T19:36:57.805Z,11.00
2022-09-19T19:39:27.680Z,10.90
2022-09-19T19:41:57.374Z,11.00
2022-09-19T19:44:26.668Z,11.00
2022-09-19T19:46:56.342Z,10.90
2022-09-19T19:49:25.628Z,10.90
2022-09-19T19:51:55.117Z,10.90
2022-09-19T19:54:26.577Z,10.90
2022-09-19T19:56:56.480Z,10.90
2022-09-19T19:59:27.565Z,10.80
2022-09-19T20:01:56.516Z,10.80
2022-09-19T20:04:25.845Z,10.80
2022-09-19T20:06:55.822Z,10.80
2022-09-19T20:09:30.747Z,10.70
2022-09-19T20:12:00.773Z,10.70
2022-09-19T20:14:30.418Z,10.60
2022-09-19T20:17:00.905Z,10.60
2022-09-19T20:19:30.307Z,10.60
2022-09-19T20:21:59.711Z,10.60
2022-09-19T20:24:32.104Z,10.60
2022-09-19T20:27:02.034Z,10.70
2022-09-19T20:29:31.361Z,10.70
2022-09-19T20:32:01.695Z,10.70
2022-09-19T20:34:31.856Z,10.70
2022-09-19T20:37:01.980Z,10.70
2022-09-19T20:39:33.329Z,10.70
2022-09-19T20:42:02.232Z,10.80
2022-09-19T20:44:31.937Z,10.80
2022-09-19T20:47:01.888Z,10.80
2022-09-19T20:49:31.955Z,10.80
2022-09-19T20:52:03.320Z,10.80
2022-09-19T20:54:34.824Z,10.90
2022-09-19T20:57:04.505Z,10.90
2022-09-19T20:59:34.070Z,11.00
2022-09-19T21:02:03.470Z,11.10
2022-09-19T21:04:33.046Z,11.10
2022-09-19T21:07:03.208Z,11.10
2022-09-19T21:09:35.284Z,11.10
2022-09-19T21:12:27.612Z,11.20
2022-09-19T21:14:56.130Z,11.20
2022-09-19T21:17:25.769Z,11.20
2022-09-19T21:19:55.485Z,11.20
2022-09-19T21:22:24.901Z,11.10
2022-09-19T21:24:56.415Z,11.10
2022-09-19T21:27:25.830Z,11.10
2022-09-19T21:29:56.038Z,11.10
2022-09-19T21:32:25.820Z,11.00
2022-09-19T21:34:55.073Z,11.00
2022-09-19T21:37:24.762Z,11.00
2022-09-19T21:39:54.162Z,11.00
2022-09-19T21:42:25.924Z,11.00
2022-09-19T21:44:55.830Z,10.90
2022-09-19T21:47:25.350Z,10.90
2022-09-19T21:49:55.041Z,10.90
2022-09-19T21:52:24.774Z,10.90
2022-09-19T21:54:54.461Z,10.90
2022-09-19T21:57:25.473Z,10.90
2022-09-19T21:59:55.144Z,10.80
2022-09-19T22:02:24.667Z,10.70
2022-09-19T22:04:54.090Z,10.70
2022-09-19T22:07:24.183Z,10.60
2022-09-19T22:09:53.913Z,10.60
2022-09-19T22:12:24.716Z,10.50
2022-09-19T22:14:55.174Z,10.50
2022-09-19T22:17:25.495Z,10.50
2022-09-19T22:19:55.736Z,10.40
2022-09-19T22:22:25.245Z,10.40
2022-09-19T22:24:54.800Z,10.40
2022-09-19T22:27:25.942Z,10.40
2022-09-19T22:29:54.823Z,10.50
2022-09-19T22:32:25.955Z,10.40
2022-09-19T22:34:55.312Z,10.40
2022-09-19T22:37:25.283Z,10.50
2022-09-19T22:39:55.532Z,10.50
2022-09-19T22:42:26.632Z,10.50
2022-09-19T22:44:56.645Z,10.40
2022-09-19T22:47:26.182Z,10.40
2022-09-19T22:49:55.436Z,10.40
2022-09-19T22:52:25.601Z,10.40
2022-09-19T22:54:55.406Z,10.30
2022-09-19T22:57:26.341Z,10.30
2022-09-19T22:59:55.916Z,10.30
2022-09-19T23:02:26.396Z,10.30
2022-09-19T23:04:56.132Z,10.20
2022-09-19T23:07:25.920Z,10.20
2022-09-19T23:09:55.294Z,10.20
2022-09-19T23:12:26.117Z,10.20
2022-09-19T23:14:56.939Z,10.20
2022-09-19T23:17:26.418Z,10.10
2022-09-19T23:19:55.773Z,10.10
2022-09-19T23:22:29.074Z,10.10
2022-09-19T23:25:00.992Z,10.00
2022-09-19T23:27:32.017Z,10.10
2022-09-19T23:30:01.275Z,10.10
2022-09-19T23:32:30.888Z,10.10
2022-09-19T23:35:00.889Z,10.00
2022-09-19T23:37:30.293Z,10.00
2022-09-19T23:39:59.953Z,10.00
2022-09-19T23:42:31.092Z,10.10
2022-09-19T23:44:59.957Z,10.00
2022-09-19T23:47:29.430Z,10.00
2022-09-19T23:49:59.528Z,10.00
2022-09-19T23:52:28.789Z,10.00
2022-09-19T23:54:59.810Z,10.00
2022-09-19T23:57:31.025Z,10.00
2022-09-19T23:59:59.925Z,10.00
